LPE2023 SPJC-SPTU
Flight info
| Callsign | LPE2023 |
|---|---|
| Flight time | 1h 17m |
| Altitude | 39000 |
| Route | EVSUR2 ILPIP UT218 ANBON DCT ISUMO |
| Aircraft | A319/M-SDE3FGHIRWY/LB1 |
Departure
| Time | 2026-05-06 18:53 |
|---|---|
| Airport | Jorge Chávez International Airport (SPJC) |
Arrival
| Time | 2026-05-06 20:10 |
|---|---|
| Airport | Padre Aldamiz International Airport (SPTU) |
| Time | Latitude | Longitude | Altitude | Speed | Heading |
|---|---|---|---|---|---|
| 2026-05-06 17:47 | -12.02682 | -77.11689 | 128 ft | 0 kts | 243° |
| 2026-05-06 18:35 | -12.02680 | -77.11684 | 128 ft | 2 kts | 245° |
| 2026-05-06 18:35 | -12.02674 | -77.11671 | 128 ft | 2 kts | 243° |
| 2026-05-06 18:36 | -12.02667 | -77.11658 | 128 ft | 2 kts | 244° |
| 2026-05-06 18:36 | -12.02660 | -77.11645 | 128 ft | 1 kts | 247° |
| 2026-05-06 18:36 | -12.02661 | -77.11633 | 128 ft | 1 kts | 312° |
| 2026-05-06 18:36 | -12.02669 | -77.11629 | 128 ft | 0 kts | 344° |
| 2026-05-06 18:37 | -12.02677 | -77.11625 | 128 ft | 1 kts | 330° |
| 2026-05-06 18:37 | -12.02684 | -77.11621 | 127 ft | 1 kts | 333° |
| 2026-05-06 18:39 | -12.02683 | -77.11621 | 127 ft | 1 kts | 333° |
| 2026-05-06 18:39 | -12.02658 | -77.11634 | 127 ft | 6 kts | 334° |
| 2026-05-06 18:40 | -12.02539 | -77.11693 | 127 ft | 10 kts | 333° |
| 2026-05-06 18:40 | -12.02476 | -77.11724 | 127 ft | 10 kts | 334° |
| 2026-05-06 18:40 | -12.02415 | -77.11744 | 127 ft | 8 kts | 12° |
| 2026-05-06 18:40 | -12.02379 | -77.11700 | 127 ft | 8 kts | 64° |
| 2026-05-06 18:41 | -12.02352 | -77.11644 | 127 ft | 8 kts | 61° |
| 2026-05-06 18:41 | -12.02299 | -77.11635 | 127 ft | 8 kts | 341° |
| 2026-05-06 18:41 | -12.02244 | -77.11661 | 127 ft | 8 kts | 335° |
| 2026-05-06 18:41 | -12.02188 | -77.11687 | 127 ft | 8 kts | 334° |
| 2026-05-06 18:42 | -12.02132 | -77.11715 | 127 ft | 8 kts | 334° |
| 2026-05-06 18:42 | -12.02074 | -77.11742 | 127 ft | 9 kts | 335° |
| 2026-05-06 18:42 | -12.02016 | -77.11771 | 127 ft | 9 kts | 334° |
| 2026-05-06 18:42 | -12.01957 | -77.11803 | 127 ft | 9 kts | 331° |
| 2026-05-06 18:43 | -12.01898 | -77.11834 | 127 ft | 9 kts | 334° |
| 2026-05-06 18:43 | -12.01838 | -77.11830 | 127 ft | 7 kts | 44° |
| 2026-05-06 18:43 | -12.01822 | -77.11811 | 127 ft | 2 kts | 53° |
| 2026-05-06 18:43 | -12.01811 | -77.11800 | 127 ft | 2 kts | 28° |
| 2026-05-06 18:44 | -12.01792 | -77.11802 | 127 ft | 4 kts | 339° |
| 2026-05-06 18:44 | -12.01750 | -77.11822 | 127 ft | 8 kts | 334° |
| 2026-05-06 18:44 | -12.01733 | -77.11830 | 127 ft | 4 kts | 334° |
| 2026-05-06 18:44 | -12.01689 | -77.11852 | 127 ft | 9 kts | 333° |
| 2026-05-06 18:45 | -12.01647 | -77.11873 | 127 ft | 4 kts | 333° |
| 2026-05-06 18:45 | -12.01611 | -77.11891 | 127 ft | 6 kts | 334° |
| 2026-05-06 18:45 | -12.01563 | -77.11915 | 128 ft | 8 kts | 333° |
| 2026-05-06 18:45 | -12.01505 | -77.11945 | 128 ft | 10 kts | 334° |
| 2026-05-06 18:46 | -12.01436 | -77.11979 | 128 ft | 11 kts | 333° |
| 2026-05-06 18:46 | -12.01357 | -77.12015 | 128 ft | 13 kts | 335° |
| 2026-05-06 18:46 | -12.01318 | -77.12036 | 128 ft | 5 kts | 327° |
| 2026-05-06 18:46 | -12.01286 | -77.12067 | 128 ft | 7 kts | 308° |
| 2026-05-06 18:47 | -12.01252 | -77.12114 | 127 ft | 9 kts | 309° |
| 2026-05-06 18:47 | -12.01204 | -77.12163 | 127 ft | 10 kts | 324° |
| 2026-05-06 18:47 | -12.01161 | -77.12186 | 127 ft | 4 kts | 333° |
| 2026-05-06 18:47 | -12.01125 | -77.12204 | 127 ft | 6 kts | 334° |
| 2026-05-06 18:48 | -12.01078 | -77.12228 | 127 ft | 8 kts | 333° |
| 2026-05-06 18:48 | -12.01023 | -77.12256 | 128 ft | 4 kts | 334° |
| 2026-05-06 18:48 | -12.00989 | -77.12273 | 127 ft | 6 kts | 333° |
| 2026-05-06 18:48 | -12.00943 | -77.12296 | 127 ft | 7 kts | 333° |
| 2026-05-06 18:49 | -12.00937 | -77.12299 | 128 ft | 0 kts | 333° |
| 2026-05-06 18:49 | -12.00928 | -77.12304 | 128 ft | 2 kts | 333° |
| 2026-05-06 18:50 | -12.00905 | -77.12315 | 127 ft | 4 kts | 340° |
| 2026-05-06 18:50 | -12.00868 | -77.12310 | 128 ft | 6 kts | 32° |
| 2026-05-06 18:50 | -12.00841 | -77.12267 | 128 ft | 8 kts | 65° |
| 2026-05-06 18:50 | -12.00816 | -77.12211 | 128 ft | 9 kts | 66° |
| 2026-05-06 18:51 | -12.00788 | -77.12148 | 128 ft | 6 kts | 64° |
| 2026-05-06 18:51 | -12.00784 | -77.12129 | 128 ft | 0 kts | 140° |
| 2026-05-06 18:51 | -12.00786 | -77.12126 | 128 ft | 1 kts | 129° |
| 2026-05-06 18:51 | -12.00795 | -77.12119 | 128 ft | 0 kts | 153° |
| 2026-05-06 18:52 | -12.00842 | -77.12096 | 128 ft | 29 kts | 154° |
| 2026-05-06 18:52 | -12.01262 | -77.11890 | 128 ft | 101 kts | 153° |
| 2026-05-06 18:52 | -12.02074 | -77.11482 | 182 ft | 151 kts | 156° |
| 2026-05-06 18:53 | -12.03025 | -77.10997 | 725 ft | 155 kts | 155° |
| 2026-05-06 18:53 | -12.04016 | -77.10510 | 1275 ft | 164 kts | 156° |
| 2026-05-06 18:53 | -12.05090 | -77.09991 | 1771 ft | 179 kts | 155° |
| 2026-05-06 18:53 | -12.06275 | -77.09414 | 2278 ft | 195 kts | 154° |
| 2026-05-06 18:54 | -12.07573 | -77.08778 | 2721 ft | 218 kts | 153° |
| 2026-05-06 18:54 | -12.08985 | -77.08081 | 3282 ft | 236 kts | 153° |
| 2026-05-06 18:54 | -12.10532 | -77.07314 | 3881 ft | 255 kts | 153° |
| 2026-05-06 18:54 | -12.12165 | -77.06506 | 4660 ft | 265 kts | 153° |
| 2026-05-06 18:55 | -12.13804 | -77.05697 | 5624 ft | 266 kts | 153° |
| 2026-05-06 18:55 | -12.15482 | -77.04868 | 6479 ft | 270 kts | 153° |
| 2026-05-06 18:55 | -12.17057 | -77.03828 | 7279 ft | 274 kts | 133° |
| 2026-05-06 18:55 | -12.18028 | -77.02197 | 8272 ft | 268 kts | 107° |
| 2026-05-06 18:56 | -12.18198 | -77.00365 | 9142 ft | 266 kts | 82° |
| 2026-05-06 18:56 | -12.17541 | -76.98569 | 9569 ft | 281 kts | 56° |
| 2026-05-06 18:56 | -12.16203 | -76.97023 | 9924 ft | 297 kts | 47° |
| 2026-05-06 18:56 | -12.14747 | -76.95458 | 10266 ft | 309 kts | 48° |
| 2026-05-06 18:57 | -12.13245 | -76.93820 | 10678 ft | 323 kts | 48° |
| 2026-05-06 18:57 | -12.11710 | -76.92126 | 11350 ft | 326 kts | 48° |
| 2026-05-06 18:57 | -12.10172 | -76.90417 | 11940 ft | 328 kts | 48° |
| 2026-05-06 18:57 | -12.08634 | -76.88707 | 12510 ft | 330 kts | 48° |
| 2026-05-06 18:58 | -12.07070 | -76.86962 | 13093 ft | 332 kts | 49° |
| 2026-05-06 18:58 | -12.05802 | -76.84990 | 13701 ft | 334 kts | 69° |
| 2026-05-06 18:58 | -12.05364 | -76.82680 | 14250 ft | 335 kts | 90° |
| 2026-05-06 18:58 | -12.05524 | -76.80311 | 14807 ft | 336 kts | 95° |
| 2026-05-06 18:59 | -12.05733 | -76.77919 | 15326 ft | 339 kts | 95° |
| 2026-05-06 18:59 | -12.05934 | -76.75518 | 15934 ft | 342 kts | 95° |
| 2026-05-06 18:59 | -12.06128 | -76.73091 | 16510 ft | 344 kts | 94° |
| 2026-05-06 18:59 | -12.06317 | -76.70647 | 17071 ft | 347 kts | 94° |
| 2026-05-06 19:00 | -12.06504 | -76.68202 | 17602 ft | 349 kts | 94° |
| 2026-05-06 19:00 | -12.06691 | -76.65729 | 18160 ft | 352 kts | 94° |
| 2026-05-06 19:00 | -12.06879 | -76.63228 | 18695 ft | 355 kts | 94° |
| 2026-05-06 19:00 | -12.07069 | -76.60696 | 19225 ft | 358 kts | 94° |
| 2026-05-06 19:01 | -12.07258 | -76.58154 | 19747 ft | 361 kts | 93° |
| 2026-05-06 19:01 | -12.07447 | -76.55607 | 20267 ft | 364 kts | 93° |
| 2026-05-06 19:01 | -12.07639 | -76.53002 | 20773 ft | 368 kts | 93° |
| 2026-05-06 19:01 | -12.07830 | -76.50420 | 21235 ft | 372 kts | 93° |
| 2026-05-06 19:02 | -12.08027 | -76.47758 | 21703 ft | 375 kts | 93° |
| 2026-05-06 19:02 | -12.08223 | -76.45097 | 22177 ft | 378 kts | 93° |
| 2026-05-06 19:02 | -12.08421 | -76.42408 | 22661 ft | 380 kts | 93° |
| 2026-05-06 19:02 | -12.08621 | -76.39726 | 23134 ft | 382 kts | 92° |
| 2026-05-06 19:03 | -12.08820 | -76.37012 | 23631 ft | 384 kts | 92° |
| 2026-05-06 19:03 | -12.09022 | -76.34265 | 24119 ft | 387 kts | 92° |
| 2026-05-06 19:03 | -12.09222 | -76.31557 | 24602 ft | 389 kts | 92° |
| 2026-05-06 19:03 | -12.09425 | -76.28776 | 25080 ft | 391 kts | 91° |
| 2026-05-06 19:04 | -12.09627 | -76.26025 | 25533 ft | 393 kts | 91° |
| 2026-05-06 19:04 | -12.09830 | -76.23246 | 25974 ft | 395 kts | 91° |
| 2026-05-06 19:04 | -12.10036 | -76.20417 | 26415 ft | 397 kts | 91° |
| 2026-05-06 19:04 | -12.10240 | -76.17612 | 26853 ft | 400 kts | 91° |
| 2026-05-06 19:05 | -12.10449 | -76.14767 | 27279 ft | 402 kts | 90° |
| 2026-05-06 19:05 | -12.10655 | -76.11935 | 27705 ft | 404 kts | 90° |
| 2026-05-06 19:05 | -12.10864 | -76.09064 | 28135 ft | 406 kts | 90° |
| 2026-05-06 19:05 | -12.11072 | -76.06186 | 28559 ft | 408 kts | 90° |
| 2026-05-06 19:06 | -12.11281 | -76.03286 | 28976 ft | 410 kts | 90° |
| 2026-05-06 19:06 | -12.11478 | -76.00375 | 29352 ft | 413 kts | 90° |
| 2026-05-06 19:06 | -12.11656 | -75.97430 | 29688 ft | 417 kts | 90° |
| 2026-05-06 19:06 | -12.11829 | -75.94490 | 29997 ft | 421 kts | 90° |
| 2026-05-06 19:07 | -12.12007 | -75.91496 | 30326 ft | 425 kts | 90° |
| 2026-05-06 19:07 | -12.12189 | -75.88483 | 30662 ft | 428 kts | 90° |
| 2026-05-06 19:07 | -12.12372 | -75.85453 | 30978 ft | 431 kts | 90° |
| 2026-05-06 19:07 | -12.12557 | -75.82382 | 31296 ft | 435 kts | 90° |
| 2026-05-06 19:08 | -12.12744 | -75.79295 | 31588 ft | 438 kts | 90° |
| 2026-05-06 19:08 | -12.12935 | -75.76166 | 31882 ft | 442 kts | 90° |
| 2026-05-06 19:08 | -12.13121 | -75.73067 | 32181 ft | 445 kts | 91° |
| 2026-05-06 19:08 | -12.13311 | -75.69907 | 32488 ft | 447 kts | 91° |
| 2026-05-06 19:09 | -12.13501 | -75.66724 | 32821 ft | 450 kts | 91° |
| 2026-05-06 19:09 | -12.13691 | -75.63535 | 33182 ft | 452 kts | 91° |
| 2026-05-06 19:09 | -12.13880 | -75.60359 | 33658 ft | 451 kts | 91° |
| 2026-05-06 19:09 | -12.14070 | -75.57169 | 34182 ft | 449 kts | 91° |
| 2026-05-06 19:10 | -12.14260 | -75.53979 | 34674 ft | 448 kts | 91° |
| 2026-05-06 19:10 | -12.14446 | -75.50813 | 35154 ft | 446 kts | 91° |
| 2026-05-06 19:10 | -12.14631 | -75.47690 | 35616 ft | 445 kts | 91° |
| 2026-05-06 19:10 | -12.14816 | -75.44560 | 36031 ft | 444 kts | 91° |
| 2026-05-06 19:11 | -12.15002 | -75.41407 | 36410 ft | 444 kts | 92° |
| 2026-05-06 19:11 | -12.15187 | -75.38259 | 36730 ft | 445 kts | 92° |
| 2026-05-06 19:11 | -12.15372 | -75.35128 | 36982 ft | 447 kts | 92° |
| 2026-05-06 19:11 | -12.15559 | -75.31951 | 37227 ft | 448 kts | 92° |
| 2026-05-06 19:12 | -12.15745 | -75.28771 | 37489 ft | 449 kts | 92° |
| 2026-05-06 19:12 | -12.15930 | -75.25600 | 37757 ft | 450 kts | 92° |
| 2026-05-06 19:12 | -12.16117 | -75.22417 | 37976 ft | 452 kts | 92° |
| 2026-05-06 19:13 | -12.16489 | -75.16013 | 37991 ft | 453 kts | 92° |
| 2026-05-06 19:13 | -12.16863 | -75.09583 | 37998 ft | 453 kts | 92° |
| 2026-05-06 19:14 | -12.17234 | -75.03193 | 37996 ft | 453 kts | 92° |
| 2026-05-06 19:14 | -12.17604 | -74.96761 | 37983 ft | 453 kts | 92° |
| 2026-05-06 19:15 | -12.17970 | -74.90342 | 37983 ft | 453 kts | 92° |
| 2026-05-06 19:15 | -12.18335 | -74.83942 | 37924 ft | 453 kts | 92° |
| 2026-05-06 19:16 | -12.18699 | -74.77525 | 37876 ft | 453 kts | 92° |
| 2026-05-06 19:16 | -12.19060 | -74.71135 | 37844 ft | 453 kts | 92° |
| 2026-05-06 19:17 | -12.19423 | -74.64713 | 37802 ft | 453 kts | 92° |
| 2026-05-06 19:17 | -12.19783 | -74.58275 | 37763 ft | 453 kts | 92° |
| 2026-05-06 19:18 | -12.20141 | -74.51897 | 37796 ft | 454 kts | 92° |
| 2026-05-06 19:18 | -12.20500 | -74.45438 | 37749 ft | 453 kts | 92° |
| 2026-05-06 19:19 | -12.20855 | -74.39039 | 37681 ft | 453 kts | 92° |
| 2026-05-06 19:19 | -12.21210 | -74.32630 | 37534 ft | 444 kts | 92° |
| 2026-05-06 19:19 | -12.21381 | -74.29537 | 37454 ft | 430 kts | 92° |
| 2026-05-06 19:20 | -12.21547 | -74.26553 | 37383 ft | 420 kts | 91° |
| 2026-05-06 19:20 | -12.21870 | -74.20602 | 37246 ft | 418 kts | 92° |
| 2026-05-06 19:21 | -12.22194 | -74.14649 | 37199 ft | 419 kts | 92° |
| 2026-05-06 19:21 | -12.22517 | -74.08726 | 37092 ft | 418 kts | 92° |
| 2026-05-06 19:22 | -12.22838 | -74.02815 | 37081 ft | 418 kts | 92° |
| 2026-05-06 19:22 | -12.23158 | -73.96873 | 37102 ft | 418 kts | 92° |
| 2026-05-06 19:23 | -12.23474 | -73.90990 | 37139 ft | 417 kts | 92° |
| 2026-05-06 19:23 | -12.23953 | -73.85077 | 37219 ft | 418 kts | 94° |
| 2026-05-06 19:24 | -12.24480 | -73.79141 | 37279 ft | 418 kts | 94° |
| 2026-05-06 19:24 | -12.25002 | -73.73233 | 37340 ft | 418 kts | 94° |
| 2026-05-06 19:25 | -12.25520 | -73.67348 | 37364 ft | 419 kts | 94° |
| 2026-05-06 19:25 | -12.26042 | -73.61404 | 37422 ft | 418 kts | 94° |
| 2026-05-06 19:26 | -12.26558 | -73.55502 | 37415 ft | 418 kts | 94° |
| 2026-05-06 19:26 | -12.27070 | -73.49614 | 37447 ft | 417 kts | 94° |
| 2026-05-06 19:27 | -12.27585 | -73.43694 | 37465 ft | 418 kts | 94° |
| 2026-05-06 19:27 | -12.28095 | -73.37798 | 37442 ft | 418 kts | 94° |
| 2026-05-06 19:28 | -12.28606 | -73.31885 | 37392 ft | 418 kts | 94° |
| 2026-05-06 19:28 | -12.29118 | -73.25964 | 37359 ft | 418 kts | 94° |
| 2026-05-06 19:29 | -12.29626 | -73.20049 | 37327 ft | 419 kts | 94° |
| 2026-05-06 19:29 | -12.30136 | -73.14119 | 37296 ft | 419 kts | 94° |
| 2026-05-06 19:30 | -12.30644 | -73.08186 | 37277 ft | 419 kts | 94° |
| 2026-05-06 19:30 | -12.31148 | -73.02269 | 37196 ft | 419 kts | 94° |
| 2026-05-06 19:31 | -12.31652 | -72.96347 | 37164 ft | 418 kts | 94° |
| 2026-05-06 19:31 | -12.32401 | -72.87503 | 37183 ft | 418 kts | 94° |
| 2026-05-06 19:32 | -12.32904 | -72.81588 | 37214 ft | 418 kts | 94° |
| 2026-05-06 19:32 | -12.33402 | -72.75685 | 37211 ft | 419 kts | 94° |
| 2026-05-06 19:33 | -12.33903 | -72.69719 | 37204 ft | 418 kts | 94° |
| 2026-05-06 19:33 | -12.34397 | -72.63844 | 37237 ft | 418 kts | 94° |
| 2026-05-06 19:34 | -12.34892 | -72.57925 | 37269 ft | 418 kts | 94° |
| 2026-05-06 19:34 | -12.35387 | -72.52005 | 37272 ft | 418 kts | 94° |
| 2026-05-06 19:35 | -12.35861 | -72.46315 | 37325 ft | 418 kts | 93° |
| 2026-05-06 19:35 | -12.36354 | -72.40385 | 37382 ft | 418 kts | 94° |
| 2026-05-06 19:36 | -12.36843 | -72.34484 | 37401 ft | 418 kts | 93° |
| 2026-05-06 19:36 | -12.37333 | -72.28563 | 37407 ft | 419 kts | 93° |
| 2026-05-06 19:37 | -12.37821 | -72.22646 | 37447 ft | 417 kts | 93° |
| 2026-05-06 19:37 | -12.38228 | -72.17710 | 37508 ft | 418 kts | 93° |
| 2026-05-06 19:38 | -12.38794 | -72.10807 | 37540 ft | 421 kts | 93° |
| 2026-05-06 19:38 | -12.39282 | -72.04783 | 37601 ft | 433 kts | 93° |
| 2026-05-06 19:39 | -12.39787 | -71.98580 | 37624 ft | 445 kts | 94° |
| 2026-05-06 19:39 | -12.40304 | -71.92235 | 37622 ft | 451 kts | 93° |
| 2026-05-06 19:40 | -12.40821 | -71.85852 | 37570 ft | 452 kts | 93° |
| 2026-05-06 19:40 | -12.41340 | -71.79451 | 37538 ft | 452 kts | 93° |
| 2026-05-06 19:41 | -12.41854 | -71.73076 | 37496 ft | 452 kts | 93° |
| 2026-05-06 19:41 | -12.42369 | -71.66676 | 37423 ft | 452 kts | 93° |
| 2026-05-06 19:42 | -12.42882 | -71.60284 | 37351 ft | 452 kts | 93° |
| 2026-05-06 19:42 | -12.43391 | -71.53881 | 37278 ft | 453 kts | 93° |
| 2026-05-06 19:43 | -12.43902 | -71.47463 | 37230 ft | 453 kts | 93° |
| 2026-05-06 19:43 | -12.44409 | -71.41056 | 37209 ft | 454 kts | 93° |
| 2026-05-06 19:44 | -12.44919 | -71.34628 | 37166 ft | 453 kts | 93° |
| 2026-05-06 19:44 | -12.45426 | -71.28192 | 36886 ft | 456 kts | 93° |
| 2026-05-06 19:45 | -12.45681 | -71.24979 | 36020 ft | 459 kts | 92° |
| 2026-05-06 19:45 | -12.45942 | -71.21707 | 35281 ft | 459 kts | 92° |
| 2026-05-06 19:45 | -12.46196 | -71.18501 | 34605 ft | 457 kts | 92° |
| 2026-05-06 19:45 | -12.46452 | -71.15256 | 33936 ft | 456 kts | 92° |
| 2026-05-06 19:46 | -12.46702 | -71.12066 | 33268 ft | 455 kts | 91° |
| 2026-05-06 19:46 | -12.46953 | -71.08860 | 32586 ft | 454 kts | 91° |
| 2026-05-06 19:46 | -12.47204 | -71.05625 | 31935 ft | 454 kts | 91° |
| 2026-05-06 19:46 | -12.47449 | -71.02434 | 31318 ft | 453 kts | 91° |
| 2026-05-06 19:47 | -12.47697 | -70.99225 | 30893 ft | 447 kts | 92° |
| 2026-05-06 19:47 | -12.47940 | -70.96097 | 30457 ft | 443 kts | 92° |
| 2026-05-06 19:47 | -12.48181 | -70.92972 | 30034 ft | 437 kts | 91° |
| 2026-05-06 19:47 | -12.48418 | -70.89915 | 29604 ft | 432 kts | 92° |
| 2026-05-06 19:48 | -12.48655 | -70.86863 | 29175 ft | 427 kts | 92° |
| 2026-05-06 19:48 | -12.48886 | -70.83883 | 28734 ft | 423 kts | 92° |
| 2026-05-06 19:48 | -12.49117 | -70.80886 | 28304 ft | 419 kts | 92° |
| 2026-05-06 19:48 | -12.49345 | -70.77937 | 27879 ft | 415 kts | 92° |
| 2026-05-06 19:49 | -12.49571 | -70.75017 | 27454 ft | 411 kts | 92° |
| 2026-05-06 19:49 | -12.49792 | -70.72142 | 27025 ft | 407 kts | 92° |
| 2026-05-06 19:49 | -12.50013 | -70.69266 | 26593 ft | 403 kts | 92° |
| 2026-05-06 19:49 | -12.50230 | -70.66434 | 26176 ft | 399 kts | 92° |
| 2026-05-06 19:50 | -12.50446 | -70.63602 | 25749 ft | 396 kts | 92° |
| 2026-05-06 19:50 | -12.50659 | -70.60830 | 25339 ft | 392 kts | 92° |
| 2026-05-06 19:50 | -12.50869 | -70.58079 | 24930 ft | 389 kts | 92° |
| 2026-05-06 19:50 | -12.51079 | -70.55321 | 24509 ft | 385 kts | 92° |
| 2026-05-06 19:51 | -12.51284 | -70.52618 | 24095 ft | 382 kts | 92° |
| 2026-05-06 19:51 | -12.51488 | -70.49932 | 23686 ft | 380 kts | 92° |
| 2026-05-06 19:51 | -12.51692 | -70.47255 | 23267 ft | 377 kts | 92° |
| 2026-05-06 19:51 | -12.51896 | -70.44582 | 22860 ft | 373 kts | 92° |
| 2026-05-06 19:52 | -12.52092 | -70.41974 | 22464 ft | 370 kts | 92° |
| 2026-05-06 19:52 | -12.52291 | -70.39349 | 22058 ft | 368 kts | 92° |
| 2026-05-06 19:52 | -12.52488 | -70.36742 | 21678 ft | 365 kts | 92° |
| 2026-05-06 19:52 | -12.52679 | -70.34177 | 21278 ft | 363 kts | 92° |
| 2026-05-06 19:53 | -12.52872 | -70.31612 | 20854 ft | 362 kts | 92° |
| 2026-05-06 19:53 | -12.53063 | -70.29061 | 20435 ft | 361 kts | 92° |
| 2026-05-06 19:53 | -12.53253 | -70.26522 | 20010 ft | 361 kts | 92° |
| 2026-05-06 19:53 | -12.53444 | -70.23969 | 19593 ft | 360 kts | 93° |
| 2026-05-06 19:54 | -12.53636 | -70.21407 | 19171 ft | 360 kts | 93° |
| 2026-05-06 19:54 | -12.53827 | -70.18868 | 18755 ft | 359 kts | 93° |
| 2026-05-06 19:54 | -12.54017 | -70.16315 | 18334 ft | 358 kts | 94° |
| 2026-05-06 19:54 | -12.54205 | -70.13793 | 17911 ft | 357 kts | 94° |
| 2026-05-06 19:55 | -12.54395 | -70.11263 | 17475 ft | 357 kts | 94° |
| 2026-05-06 19:55 | -12.54643 | -70.08760 | 17049 ft | 356 kts | 98° |
| 2026-05-06 19:55 | -12.55109 | -70.06293 | 16600 ft | 356 kts | 103° |
| 2026-05-06 19:55 | -12.55778 | -70.03850 | 16141 ft | 357 kts | 106° |
| 2026-05-06 19:56 | -12.56491 | -70.01431 | 15684 ft | 357 kts | 106° |
| 2026-05-06 19:56 | -12.57217 | -69.98991 | 15223 ft | 357 kts | 106° |
| 2026-05-06 19:56 | -12.57935 | -69.96568 | 14763 ft | 357 kts | 106° |
| 2026-05-06 19:56 | -12.58653 | -69.94140 | 14306 ft | 356 kts | 106° |
| 2026-05-06 19:57 | -12.59367 | -69.91716 | 13846 ft | 356 kts | 106° |
| 2026-05-06 19:57 | -12.60075 | -69.89311 | 13383 ft | 357 kts | 106° |
| 2026-05-06 19:57 | -12.60795 | -69.86861 | 12913 ft | 356 kts | 106° |
| 2026-05-06 19:57 | -12.61501 | -69.84457 | 12464 ft | 356 kts | 106° |
| 2026-05-06 19:58 | -12.62210 | -69.82043 | 12017 ft | 355 kts | 106° |
| 2026-05-06 19:58 | -12.62921 | -69.79615 | 11565 ft | 354 kts | 106° |
| 2026-05-06 19:58 | -12.63623 | -69.77224 | 11112 ft | 354 kts | 106° |
| 2026-05-06 19:58 | -12.64328 | -69.74821 | 10681 ft | 352 kts | 106° |
| 2026-05-06 19:59 | -12.65026 | -69.72442 | 10404 ft | 345 kts | 106° |
| 2026-05-06 19:59 | -12.65714 | -69.70097 | 10171 ft | 335 kts | 106° |
| 2026-05-06 19:59 | -12.66361 | -69.67888 | 9934 ft | 321 kts | 106° |
| 2026-05-06 19:59 | -12.66995 | -69.65723 | 9651 ft | 311 kts | 106° |
| 2026-05-06 20:00 | -12.67609 | -69.63624 | 9321 ft | 308 kts | 106° |
| 2026-05-06 20:00 | -12.68222 | -69.61526 | 9041 ft | 305 kts | 106° |
| 2026-05-06 20:00 | -12.68822 | -69.59471 | 8793 ft | 300 kts | 106° |
| 2026-05-06 20:00 | -12.69409 | -69.57465 | 8507 ft | 296 kts | 105° |
| 2026-05-06 20:01 | -12.70001 | -69.55441 | 8026 ft | 294 kts | 105° |
| 2026-05-06 20:01 | -12.70586 | -69.53437 | 7548 ft | 292 kts | 106° |
| 2026-05-06 20:01 | -12.71170 | -69.51437 | 7084 ft | 294 kts | 106° |
| 2026-05-06 20:01 | -12.71755 | -69.49437 | 6694 ft | 295 kts | 105° |
| 2026-05-06 20:02 | -12.72341 | -69.47428 | 6402 ft | 293 kts | 106° |
| 2026-05-06 20:02 | -12.72915 | -69.45451 | 6167 ft | 285 kts | 105° |
| 2026-05-06 20:02 | -12.73470 | -69.43534 | 5784 ft | 281 kts | 105° |
| 2026-05-06 20:02 | -12.74020 | -69.41634 | 5299 ft | 280 kts | 105° |
| 2026-05-06 20:03 | -12.74577 | -69.39710 | 4737 ft | 282 kts | 105° |
| 2026-05-06 20:03 | -12.75130 | -69.37800 | 4255 ft | 280 kts | 105° |
| 2026-05-06 20:03 | -12.75679 | -69.35905 | 3781 ft | 278 kts | 105° |
| 2026-05-06 20:03 | -12.76222 | -69.34026 | 3319 ft | 276 kts | 105° |
| 2026-05-06 20:04 | -12.76761 | -69.32166 | 3009 ft | 267 kts | 104° |
| 2026-05-06 20:04 | -12.77275 | -69.30394 | 2963 ft | 250 kts | 104° |
| 2026-05-06 20:04 | -12.77756 | -69.28728 | 2959 ft | 234 kts | 104° |
| 2026-05-06 20:04 | -12.78200 | -69.27193 | 2947 ft | 217 kts | 104° |
| 2026-05-06 20:05 | -12.78614 | -69.25766 | 2962 ft | 195 kts | 103° |
| 2026-05-06 20:05 | -12.78809 | -69.24500 | 2964 ft | 170 kts | 75° |
| 2026-05-06 20:05 | -12.78179 | -69.23614 | 2885 ft | 151 kts | 26° |
| 2026-05-06 20:05 | -12.77178 | -69.23411 | 2793 ft | 147 kts | 0° |
| 2026-05-06 20:06 | -12.76148 | -69.23410 | 2686 ft | 146 kts | 360° |
| 2026-05-06 20:06 | -12.75127 | -69.23401 | 2670 ft | 146 kts | 1° |
| 2026-05-06 20:06 | -12.74112 | -69.23379 | 2640 ft | 146 kts | 1° |
| 2026-05-06 20:06 | -12.73092 | -69.23345 | 2531 ft | 146 kts | 2° |
| 2026-05-06 20:07 | -12.72072 | -69.23309 | 2371 ft | 145 kts | 2° |
| 2026-05-06 20:07 | -12.71079 | -69.23271 | 2210 ft | 140 kts | 2° |
| 2026-05-06 20:07 | -12.70112 | -69.23232 | 2029 ft | 138 kts | 1° |
| 2026-05-06 20:07 | -12.69156 | -69.23195 | 1859 ft | 137 kts | 1° |
| 2026-05-06 20:08 | -12.68196 | -69.23157 | 1685 ft | 137 kts | 1° |
| 2026-05-06 20:08 | -12.67242 | -69.23115 | 1510 ft | 137 kts | 3° |
| 2026-05-06 20:08 | -12.66288 | -69.23071 | 1315 ft | 136 kts | 2° |
| 2026-05-06 20:08 | -12.65335 | -69.23032 | 1137 ft | 135 kts | 1° |
| 2026-05-06 20:09 | -12.64399 | -69.22994 | 976 ft | 135 kts | 3° |
| 2026-05-06 20:09 | -12.63460 | -69.22953 | 817 ft | 135 kts | 1° |
| 2026-05-06 20:09 | -12.62518 | -69.22916 | 718 ft | 130 kts | 2° |
| 2026-05-06 20:09 | -12.61871 | -69.22888 | 714 ft | 56 kts | 2° |
| 2026-05-06 20:10 | -12.61533 | -69.22875 | 714 ft | 42 kts | 2° |
| 2026-05-06 20:10 | -12.61286 | -69.22865 | 715 ft | 29 kts | 2° |
| 2026-05-06 20:10 | -12.61095 | -69.22857 | 716 ft | 25 kts | 2° |
| 2026-05-06 20:10 | -12.60921 | -69.22851 | 715 ft | 24 kts | 1° |
| 2026-05-06 20:11 | -12.60758 | -69.22843 | 713 ft | 22 kts | 3° |
| 2026-05-06 20:11 | -12.60600 | -69.22837 | 711 ft | 21 kts | 2° |
| 2026-05-06 20:11 | -12.60454 | -69.22830 | 710 ft | 20 kts | 2° |
| 2026-05-06 20:11 | -12.60343 | -69.22826 | 708 ft | 9 kts | 1° |
| 2026-05-06 20:12 | -12.60291 | -69.22793 | 707 ft | 10 kts | 75° |
| 2026-05-06 20:12 | -12.60289 | -69.22714 | 706 ft | 12 kts | 93° |
| 2026-05-06 20:12 | -12.60294 | -69.22623 | 705 ft | 13 kts | 92° |
| 2026-05-06 20:12 | -12.60297 | -69.22527 | 705 ft | 13 kts | 92° |
| 2026-05-06 20:13 | -12.60301 | -69.22424 | 703 ft | 15 kts | 91° |
| 2026-05-06 20:13 | -12.60301 | -69.22334 | 701 ft | 10 kts | 91° |
| 2026-05-06 20:13 | -12.60306 | -69.22263 | 701 ft | 8 kts | 107° |
| 2026-05-06 20:13 | -12.60353 | -69.22241 | 702 ft | 7 kts | 185° |
| 2026-05-06 20:14 | -12.60392 | -69.22245 | 702 ft | 4 kts | 184° |
| 2026-05-06 20:14 | -12.60425 | -69.22247 | 702 ft | 4 kts | 182° |
| 2026-05-06 20:14 | -12.60453 | -69.22240 | 702 ft | 2 kts | 109° |
| 2026-05-06 20:14 | -12.60444 | -69.22220 | 702 ft | 4 kts | 56° |
| 2026-05-06 20:15 | -12.60433 | -69.22201 | 702 ft | 1 kts | 59° |
| 2026-05-06 20:15 | -12.60430 | -69.22195 | 702 ft | 0 kts | 59° |
| 2026-05-06 20:45 | -12.60433 | -69.22202 | 702 ft | 2 kts | 58° |
| 2026-05-06 20:45 | -12.60438 | -69.22208 | 702 ft | 0 kts | 51° |
| 2026-05-06 20:48 | -12.60434 | -69.22205 | 702 ft | 0 kts | 28° |
| 2026-05-06 20:49 | -12.60428 | -69.22207 | 702 ft | 1 kts | 335° |
| 2026-05-06 20:49 | -12.60405 | -69.22218 | 702 ft | 5 kts | 336° |
| 2026-05-06 20:49 | -12.60366 | -69.22240 | 702 ft | 6 kts | 333° |
| 2026-05-06 20:49 | -12.60324 | -69.22244 | 701 ft | 6 kts | 0° |
| 2026-05-06 20:50 | -12.60305 | -69.22277 | 701 ft | 6 kts | 273° |
| 2026-05-06 20:50 | -12.60303 | -69.22334 | 701 ft | 10 kts | 270° |
| 2026-05-06 20:50 | -12.60301 | -69.22381 | 702 ft | 5 kts | 273° |
| 2026-05-06 20:50 | -12.60299 | -69.22430 | 703 ft | 8 kts | 272° |
| 2026-05-06 20:51 | -12.60297 | -69.22497 | 704 ft | 8 kts | 272° |
| 2026-05-06 20:51 | -12.60295 | -69.22553 | 705 ft | 7 kts | 271° |
| 2026-05-06 20:51 | -12.60294 | -69.22611 | 704 ft | 8 kts | 271° |
| 2026-05-06 20:51 | -12.60292 | -69.22675 | 705 ft | 9 kts | 271° |
| 2026-05-06 20:52 | -12.60290 | -69.22738 | 706 ft | 8 kts | 271° |
| 2026-05-06 20:52 | -12.60289 | -69.22794 | 707 ft | 7 kts | 271° |
| 2026-05-06 20:52 | -12.60272 | -69.22830 | 707 ft | 6 kts | 1° |
| 2026-05-06 20:52 | -12.60224 | -69.22826 | 707 ft | 7 kts | 5° |
| 2026-05-06 20:53 | -12.60169 | -69.22821 | 707 ft | 8 kts | 4° |
| 2026-05-06 20:53 | -12.60110 | -69.22817 | 707 ft | 8 kts | 2° |
| 2026-05-06 20:53 | -12.60049 | -69.22814 | 707 ft | 7 kts | 2° |
| 2026-05-06 20:53 | -12.59995 | -69.22812 | 707 ft | 7 kts | 2° |
| 2026-05-06 20:54 | -12.59937 | -69.22809 | 707 ft | 8 kts | 2° |
| 2026-05-06 20:54 | -12.59876 | -69.22808 | 707 ft | 8 kts | 346° |
| 2026-05-06 20:54 | -12.59832 | -69.22840 | 707 ft | 7 kts | 334° |
| 2026-05-06 20:54 | -12.59804 | -69.22814 | 707 ft | 6 kts | 101° |
| 2026-05-06 20:55 | -12.59821 | -69.22804 | 707 ft | 0 kts | 183° |
| 2026-05-06 20:55 | -12.59869 | -69.22806 | 707 ft | 31 kts | 182° |
| 2026-05-06 20:56 | -12.60333 | -69.22824 | 707 ft | 100 kts | 182° |
| 2026-05-06 20:56 | -12.61244 | -69.22861 | 716 ft | 157 kts | 183° |
| 2026-05-06 20:56 | -12.62414 | -69.22908 | 1096 ft | 170 kts | 181° |
| 2026-05-06 20:56 | -12.63623 | -69.22964 | 1543 ft | 184 kts | 181° |
| 2026-05-06 20:57 | -12.64972 | -69.23034 | 1985 ft | 201 kts | 186° |
| 2026-05-06 20:57 | -12.66282 | -69.23623 | 2355 ft | 219 kts | 228° |
| 2026-05-06 20:57 | -12.66991 | -69.25051 | 2805 ft | 235 kts | 257° |
| 2026-05-06 20:57 | -12.67371 | -69.26708 | 3339 ft | 252 kts | 259° |
| 2026-05-06 20:58 | -12.67813 | -69.28508 | 3901 ft | 270 kts | 256° |
| 2026-05-06 20:58 | -12.68351 | -69.30373 | 4703 ft | 278 kts | 254° |
| 2026-05-06 20:58 | -12.68954 | -69.32257 | 5649 ft | 280 kts | 253° |
| 2026-05-06 20:58 | -12.69583 | -69.34129 | 6574 ft | 282 kts | 252° |
| 2026-05-06 20:59 | -12.70238 | -69.36014 | 7461 ft | 284 kts | 251° |
| 2026-05-06 20:59 | -12.70906 | -69.37902 | 8326 ft | 286 kts | 251° |
| 2026-05-06 20:59 | -12.71578 | -69.39793 | 9149 ft | 288 kts | 251° |